sensor_id;sensor_type;location;lat;lon;timestamp;P1;durP1;ratioP1;P2;durP2;ratioP2
67174;SDS011;54110;45.778;4.826;2022-11-30T00:01:28;2.05;;;0.82;;
67174;SDS011;54110;45.778;4.826;2022-11-30T00:03:55;2.72;;;0.60;;
67174;SDS011;54110;45.778;4.826;2022-11-30T00:06:21;1.05;;;0.50;;
67174;SDS011;54110;45.778;4.826;2022-11-30T00:08:50;1.42;;;0.77;;
67174;SDS011;54110;45.778;4.826;2022-11-30T00:11:17;0.85;;;0.70;;
67174;SDS011;54110;45.778;4.826;2022-11-30T00:13:43;4.68;;;0.68;;
67174;SDS011;54110;45.778;4.826;2022-11-30T00:16:09;0.65;;;0.50;;
67174;SDS011;54110;45.778;4.826;2022-11-30T00:18:35;0.90;;;0.60;;
67174;SDS011;54110;45.778;4.826;2022-11-30T00:21:02;1.60;;;0.80;;
67174;SDS011;54110;45.778;4.826;2022-11-30T00:23:30;1.52;;;0.73;;
67174;SDS011;54110;45.778;4.826;2022-11-30T00:26:00;1.42;;;0.50;;
67174;SDS011;54110;45.778;4.826;2022-11-30T00:28:26;0.95;;;0.73;;
67174;SDS011;54110;45.778;4.826;2022-11-30T00:30:55;1.23;;;0.68;;
67174;SDS011;54110;45.778;4.826;2022-11-30T00:33:21;1.42;;;0.60;;
67174;SDS011;54110;45.778;4.826;2022-11-30T00:35:54;1.55;;;0.60;;
67174;SDS011;54110;45.778;4.826;2022-11-30T00:38:20;2.40;;;0.55;;
67174;SDS011;54110;45.778;4.826;2022-11-30T00:40:46;0.80;;;0.68;;
67174;SDS011;54110;45.778;4.826;2022-11-30T00:43:13;4.45;;;0.88;;
67174;SDS011;54110;45.778;4.826;2022-11-30T00:45:39;0.68;;;0.63;;
67174;SDS011;54110;45.778;4.826;2022-11-30T00:48:06;0.93;;;0.73;;
67174;SDS011;54110;45.778;4.826;2022-11-30T00:50:32;0.50;;;0.50;;
67174;SDS011;54110;45.778;4.826;2022-11-30T00:52:58;1.45;;;0.65;;
67174;SDS011;54110;45.778;4.826;2022-11-30T00:55:24;2.47;;;0.70;;
67174;SDS011;54110;45.778;4.826;2022-11-30T00:57:50;2.92;;;1.20;;
67174;SDS011;54110;45.778;4.826;2022-11-30T01:00:17;0.70;;;0.52;;
67174;SDS011;54110;45.778;4.826;2022-11-30T01:02:44;1.35;;;0.75;;
67174;SDS011;54110;45.778;4.826;2022-11-30T01:05:10;0.70;;;0.60;;
67174;SDS011;54110;45.778;4.826;2022-11-30T01:07:36;2.10;;;0.80;;
67174;SDS011;54110;45.778;4.826;2022-11-30T01:10:02;2.65;;;1.08;;
67174;SDS011;54110;45.778;4.826;2022-11-30T01:12:28;1.95;;;0.65;;
67174;SDS011;54110;45.778;4.826;2022-11-30T01:14:54;0.70;;;0.70;;
67174;SDS011;54110;45.778;4.826;2022-11-30T01:17:21;3.88;;;0.93;;
67174;SDS011;54110;45.778;4.826;2022-11-30T01:19:47;1.85;;;0.77;;
67174;SDS011;54110;45.778;4.826;2022-11-30T01:22:13;1.58;;;1.13;;
67174;SDS011;54110;45.778;4.826;2022-11-30T01:24:39;0.77;;;0.60;;
67174;SDS011;54110;45.778;4.826;2022-11-30T01:27:05;1.90;;;0.88;;
67174;SDS011;54110;45.778;4.826;2022-11-30T01:29:31;1.88;;;1.02;;
67174;SDS011;54110;45.778;4.826;2022-11-30T01:31:57;1.30;;;0.60;;
67174;SDS011;54110;45.778;4.826;2022-11-30T01:34:25;1.23;;;0.80;;
67174;SDS011;54110;45.778;4.826;2022-11-30T01:36:51;0.85;;;0.63;;
67174;SDS011;54110;45.778;4.826;2022-11-30T01:39:17;0.52;;;0.52;;
67174;SDS011;54110;45.778;4.826;2022-11-30T01:41:43;1.50;;;0.98;;
67174;SDS011;54110;45.778;4.826;2022-11-30T01:46:53;0.77;;;0.73;;
67174;SDS011;54110;45.778;4.826;2022-11-30T01:49:22;2.53;;;0.98;;
67174;SDS011;54110;45.778;4.826;2022-11-30T01:51:55;1.85;;;0.98;;
67174;SDS011;54110;45.778;4.826;2022-11-30T01:54:23;1.73;;;0.93;;
67174;SDS011;54110;45.778;4.826;2022-11-30T01:56:50;2.38;;;0.82;;
67174;SDS011;54110;45.778;4.826;2022-11-30T01:59:18;3.60;;;0.95;;
67174;SDS011;54110;45.778;4.826;2022-11-30T02:01:45;2.85;;;0.98;;
67174;SDS011;54110;45.778;4.826;2022-11-30T02:04:12;2.22;;;0.70;;
67174;SDS011;54110;45.778;4.826;2022-11-30T02:06:40;1.20;;;0.82;;
67174;SDS011;54110;45.778;4.826;2022-11-30T02:09:07;2.00;;;0.85;;
67174;SDS011;54110;45.778;4.826;2022-11-30T02:11:33;2.10;;;1.10;;
67174;SDS011;54110;45.778;4.826;2022-11-30T02:14:01;1.92;;;1.10;;
67174;SDS011;54110;45.778;4.826;2022-11-30T02:16:31;2.03;;;0.77;;
67174;SDS011;54110;45.778;4.826;2022-11-30T02:19:01;1.90;;;0.98;;
67174;SDS011;54110;45.778;4.826;2022-11-30T02:21:31;2.35;;;1.15;;
67174;SDS011;54110;45.778;4.826;2022-11-30T02:24:04;1.38;;;0.88;;
67174;SDS011;54110;45.778;4.826;2022-11-30T02:26:38;1.58;;;1.25;;
67174;SDS011;54110;45.778;4.826;2022-11-30T02:29:10;1.35;;;0.88;;
67174;SDS011;54110;45.778;4.826;2022-11-30T02:31:40;3.63;;;0.80;;
67174;SDS011;54110;45.778;4.826;2022-11-30T02:34:07;0.60;;;0.50;;
67174;SDS011;54110;45.778;4.826;2022-11-30T02:36:34;1.70;;;1.00;;
67174;SDS011;54110;45.778;4.826;2022-11-30T02:39:00;1.75;;;1.05;;
67174;SDS011;54110;45.778;4.826;2022-11-30T02:41:33;2.47;;;0.88;;
67174;SDS011;54110;45.778;4.826;2022-11-30T02:43:59;1.40;;;0.68;;
67174;SDS011;54110;45.778;4.826;2022-11-30T02:46:29;1.60;;;0.82;;
67174;SDS011;54110;45.778;4.826;2022-11-30T02:48:59;1.65;;;0.98;;
67174;SDS011;54110;45.778;4.826;2022-11-30T02:51:27;2.95;;;1.05;;
67174;SDS011;54110;45.778;4.826;2022-11-30T02:53:54;1.73;;;0.93;;
67174;SDS011;54110;45.778;4.826;2022-11-30T02:56:21;5.65;;;1.08;;
67174;SDS011;54110;45.778;4.826;2022-11-30T02:58:47;0.93;;;0.50;;
67174;SDS011;54110;45.778;4.826;2022-11-30T03:01:13;2.53;;;1.00;;
67174;SDS011;54110;45.778;4.826;2022-11-30T03:03:40;1.52;;;0.88;;
67174;SDS011;54110;45.778;4.826;2022-11-30T03:06:06;1.40;;;1.00;;
67174;SDS011;54110;45.778;4.826;2022-11-30T03:08:32;1.08;;;0.80;;
67174;SDS011;54110;45.778;4.826;2022-11-30T03:11:00;2.75;;;1.08;;
67174;SDS011;54110;45.778;4.826;2022-11-30T03:13:26;2.22;;;0.75;;
67174;SDS011;54110;45.778;4.826;2022-11-30T03:15:52;1.08;;;0.80;;
67174;SDS011;54110;45.778;4.826;2022-11-30T03:18:18;2.67;;;0.50;;
67174;SDS011;54110;45.778;4.826;2022-11-30T03:20:45;2.00;;;1.13;;
67174;SDS011;54110;45.778;4.826;2022-11-30T03:23:11;2.40;;;0.93;;
67174;SDS011;54110;45.778;4.826;2022-11-30T03:25:37;2.03;;;1.25;;
67174;SDS011;54110;45.778;4.826;2022-11-30T03:28:03;2.20;;;0.90;;
67174;SDS011;54110;45.778;4.826;2022-11-30T03:30:29;4.93;;;1.08;;
67174;SDS011;54110;45.778;4.826;2022-11-30T03:32:55;3.25;;;1.27;;
67174;SDS011;54110;45.778;4.826;2022-11-30T03:35:21;2.50;;;0.93;;
67174;SDS011;54110;45.778;4.826;2022-11-30T03:37:49;1.80;;;0.80;;
67174;SDS011;54110;45.778;4.826;2022-11-30T03:40:15;2.30;;;1.13;;
67174;SDS011;54110;45.778;4.826;2022-11-30T03:42:41;5.50;;;1.15;;
67174;SDS011;54110;45.778;4.826;2022-11-30T03:45:07;1.00;;;0.60;;
67174;SDS011;54110;45.778;4.826;2022-11-30T03:47:33;1.10;;;0.80;;
67174;SDS011;54110;45.778;4.826;2022-11-30T03:49:59;4.93;;;1.10;;
67174;SDS011;54110;45.778;4.826;2022-11-30T03:52:25;1.23;;;0.70;;
67174;SDS011;54110;45.778;4.826;2022-11-30T03:54:52;2.47;;;0.82;;
67174;SDS011;54110;45.778;4.826;2022-11-30T03:57:18;0.68;;;0.68;;
67174;SDS011;54110;45.778;4.826;2022-11-30T03:59:44;5.20;;;1.05;;
67174;SDS011;54110;45.778;4.826;2022-11-30T04:02:10;1.58;;;1.00;;
67174;SDS011;54110;45.778;4.826;2022-11-30T04:04:36;2.47;;;0.95;;
67174;SDS011;54110;45.778;4.826;2022-11-30T04:07:02;1.10;;;0.80;;
67174;SDS011;54110;45.778;4.826;2022-11-30T04:09:28;3.17;;;0.95;;
67174;SDS011;54110;45.778;4.826;2022-11-30T04:11:56;2.13;;;1.15;;
67174;SDS011;54110;45.778;4.826;2022-11-30T04:14:22;2.97;;;0.80;;
67174;SDS011;54110;45.778;4.826;2022-11-30T04:16:48;1.45;;;0.98;;
67174;SDS011;54110;45.778;4.826;2022-11-30T04:19:14;2.20;;;1.05;;
67174;SDS011;54110;45.778;4.826;2022-11-30T04:21:40;1.23;;;0.80;;
67174;SDS011;54110;45.778;4.826;2022-11-30T04:24:06;2.05;;;0.90;;
67174;SDS011;54110;45.778;4.826;2022-11-30T04:26:32;1.92;;;0.85;;
67174;SDS011;54110;45.778;4.826;2022-11-30T04:29:00;1.13;;;0.80;;
67174;SDS011;54110;45.778;4.826;2022-11-30T04:31:26;2.95;;;0.90;;
67174;SDS011;54110;45.778;4.826;2022-11-30T04:33:52;3.40;;;0.80;;
67174;SDS011;54110;45.778;4.826;2022-11-30T04:36:18;2.03;;;0.90;;
67174;SDS011;54110;45.778;4.826;2022-11-30T04:38:44;2.92;;;0.85;;
67174;SDS011;54110;45.778;4.826;2022-11-30T04:41:10;0.80;;;0.70;;
67174;SDS011;54110;45.778;4.826;2022-11-30T04:43:37;1.75;;;1.20;;
67174;SDS011;54110;45.778;4.826;2022-11-30T04:46:05;3.22;;;1.05;;
67174;SDS011;54110;45.778;4.826;2022-11-30T04:48:31;1.35;;;1.10;;
67174;SDS011;54110;45.778;4.826;2022-11-30T04:50:59;0.98;;;0.80;;
67174;SDS011;54110;45.778;4.826;2022-11-30T04:53:25;3.72;;;1.42;;
67174;SDS011;54110;45.778;4.826;2022-11-30T04:55:50;0.70;;;0.70;;
67174;SDS011;54110;45.778;4.826;2022-11-30T04:58:17;2.00;;;0.80;;
67174;SDS011;54110;45.778;4.826;2022-11-30T05:00:43;5.45;;;1.30;;
67174;SDS011;54110;45.778;4.826;2022-11-30T05:03:10;1.73;;;0.98;;
67174;SDS011;54110;45.778;4.826;2022-11-30T05:05:36;1.80;;;1.13;;
67174;SDS011;54110;45.778;4.826;2022-11-30T05:08:02;2.67;;;1.48;;
67174;SDS011;54110;45.778;4.826;2022-11-30T05:10:28;1.60;;;0.90;;
67174;SDS011;54110;45.778;4.826;2022-11-30T05:12:54;4.38;;;1.10;;
67174;SDS011;54110;45.778;4.826;2022-11-30T05:15:21;1.20;;;0.82;;
67174;SDS011;54110;45.778;4.826;2022-11-30T05:17:47;4.50;;;1.10;;
67174;SDS011;54110;45.778;4.826;2022-11-30T05:20:15;2.10;;;1.10;;
67174;SDS011;54110;45.778;4.826;2022-11-30T05:22:41;2.58;;;1.75;;
67174;SDS011;54110;45.778;4.826;2022-11-30T05:25:07;3.38;;;1.17;;
67174;SDS011;54110;45.778;4.826;2022-11-30T05:27:33;5.07;;;1.08;;
67174;SDS011;54110;45.778;4.826;2022-11-30T05:29:59;1.17;;;1.00;;
67174;SDS011;54110;45.778;4.826;2022-11-30T05:32:25;2.20;;;1.00;;
67174;SDS011;54110;45.778;4.826;2022-11-30T05:34:51;3.88;;;0.93;;
67174;SDS011;54110;45.778;4.826;2022-11-30T05:37:19;1.90;;;1.38;;
67174;SDS011;54110;45.778;4.826;2022-11-30T05:39:45;5.47;;;1.10;;
67174;SDS011;54110;45.778;4.826;2022-11-30T05:42:11;0.82;;;0.75;;
67174;SDS011;54110;45.778;4.826;2022-11-30T05:44:37;3.45;;;1.45;;
67174;SDS011;54110;45.778;4.826;2022-11-30T05:47:03;1.48;;;0.93;;
67174;SDS011;54110;45.778;4.826;2022-11-30T05:49:29;1.95;;;1.05;;
67174;SDS011;54110;45.778;4.826;2022-11-30T05:51:55;3.03;;;1.08;;
67174;SDS011;54110;45.778;4.826;2022-11-30T05:54:22;1.48;;;0.93;;
67174;SDS011;54110;45.778;4.826;2022-11-30T05:56:48;3.58;;;1.08;;
67174;SDS011;54110;45.778;4.826;2022-11-30T05:59:14;1.67;;;1.05;;
67174;SDS011;54110;45.778;4.826;2022-11-30T06:01:40;1.13;;;0.82;;
67174;SDS011;54110;45.778;4.826;2022-11-30T06:04:06;3.20;;;0.88;;
67174;SDS011;54110;45.778;4.826;2022-11-30T06:06:32;7.70;;;2.05;;
67174;SDS011;54110;45.778;4.826;2022-11-30T06:08:58;2.28;;;0.75;;
67174;SDS011;54110;45.778;4.826;2022-11-30T06:11:26;4.78;;;1.30;;
67174;SDS011;54110;45.778;4.826;2022-11-30T06:13:52;2.45;;;1.10;;
67174;SDS011;54110;45.778;4.826;2022-11-30T06:16:18;4.20;;;1.02;;
67174;SDS011;54110;45.778;4.826;2022-11-30T06:18:44;12.55;;;1.42;;
67174;SDS011;54110;45.778;4.826;2022-11-30T06:21:10;4.85;;;1.10;;
67174;SDS011;54110;45.778;4.826;2022-11-30T06:23:36;4.30;;;1.23;;
67174;SDS011;54110;45.778;4.826;2022-11-30T06:26:02;1.20;;;0.80;;
67174;SDS011;54110;45.778;4.826;2022-11-30T06:28:30;1.77;;;0.98;;
67174;SDS011;54110;45.778;4.826;2022-11-30T06:30:57;1.48;;;1.00;;
67174;SDS011;54110;45.778;4.826;2022-11-30T06:33:23;3.58;;;0.95;;
67174;SDS011;54110;45.778;4.826;2022-11-30T06:35:49;1.85;;;1.55;;
67174;SDS011;54110;45.778;4.826;2022-11-30T06:38:15;1.50;;;0.80;;
67174;SDS011;54110;45.778;4.826;2022-11-30T06:40:41;1.20;;;1.08;;
67174;SDS011;54110;45.778;4.826;2022-11-30T06:43:07;1.63;;;1.02;;
67174;SDS011;54110;45.778;4.826;2022-11-30T06:45:34;5.65;;;1.25;;
67174;SDS011;54110;45.778;4.826;2022-11-30T06:48:00;4.85;;;1.08;;
67174;SDS011;54110;45.778;4.826;2022-11-30T06:50:26;3.13;;;1.33;;
67174;SDS011;54110;45.778;4.826;2022-11-30T06:52:52;9.07;;;1.83;;
67174;SDS011;54110;45.778;4.826;2022-11-30T06:55:20;3.15;;;1.63;;
67174;SDS011;54110;45.778;4.826;2022-11-30T06:57:46;2.45;;;0.90;;
67174;SDS011;54110;45.778;4.826;2022-11-30T07:00:12;4.30;;;1.10;;
67174;SDS011;54110;45.778;4.826;2022-11-30T07:02:40;2.22;;;1.00;;
67174;SDS011;54110;45.778;4.826;2022-11-30T07:05:06;1.23;;;0.90;;
67174;SDS011;54110;45.778;4.826;2022-11-30T07:07:32;2.38;;;1.38;;
67174;SDS011;54110;45.778;4.826;2022-11-30T07:09:58;3.70;;;1.67;;
67174;SDS011;54110;45.778;4.826;2022-11-30T07:12:24;4.88;;;1.50;;
67174;SDS011;54110;45.778;4.826;2022-11-30T07:14:51;5.78;;;1.73;;
67174;SDS011;54110;45.778;4.826;2022-11-30T07:17:17;11.07;;;1.92;;
67174;SDS011;54110;45.778;4.826;2022-11-30T07:19:44;4.97;;;2.15;;
67174;SDS011;54110;45.778;4.826;2022-11-30T07:22:10;6.07;;;2.05;;
67174;SDS011;54110;45.778;4.826;2022-11-30T07:24:36;7.47;;;1.77;;
67174;SDS011;54110;45.778;4.826;2022-11-30T07:27:02;9.18;;;1.80;;
67174;SDS011;54110;45.778;4.826;2022-11-30T07:29:28;3.45;;;1.67;;
67174;SDS011;54110;45.778;4.826;2022-11-30T07:31:54;10.63;;;1.83;;
67174;SDS011;54110;45.778;4.826;2022-11-30T07:34:20;7.03;;;1.67;;
67174;SDS011;54110;45.778;4.826;2022-11-30T07:36:48;6.50;;;2.10;;
67174;SDS011;54110;45.778;4.826;2022-11-30T07:39:14;5.47;;;1.70;;
67174;SDS011;54110;45.778;4.826;2022-11-30T07:41:40;5.13;;;2.08;;
67174;SDS011;54110;45.778;4.826;2022-11-30T07:44:07;6.57;;;2.35;;
67174;SDS011;54110;45.778;4.826;2022-11-30T07:46:33;6.75;;;2.20;;
67174;SDS011;54110;45.778;4.826;2022-11-30T07:48:59;4.35;;;1.75;;
67174;SDS011;54110;45.778;4.826;2022-11-30T07:51:25;6.32;;;1.75;;
67174;SDS011;54110;45.778;4.826;2022-11-30T07:53:53;12.45;;;1.73;;
67174;SDS011;54110;45.778;4.826;2022-11-30T07:56:19;4.68;;;1.67;;
67174;SDS011;54110;45.778;4.826;2022-11-30T07:58:46;3.97;;;1.70;;
67174;SDS011;54110;45.778;4.826;2022-11-30T08:01:12;7.30;;;2.60;;
67174;SDS011;54110;45.778;4.826;2022-11-30T08:03:39;13.52;;;1.92;;
67174;SDS011;54110;45.778;4.826;2022-11-30T08:06:05;8.10;;;2.03;;
67174;SDS011;54110;45.778;4.826;2022-11-30T08:08:33;5.35;;;2.47;;
67174;SDS011;54110;45.778;4.826;2022-11-30T08:11:00;6.50;;;1.77;;
67174;SDS011;54110;45.778;4.826;2022-11-30T08:13:27;2.75;;;1.85;;
67174;SDS011;54110;45.778;4.826;2022-11-30T08:15:53;8.38;;;1.70;;
67174;SDS011;54110;45.778;4.826;2022-11-30T08:18:19;3.58;;;1.73;;
67174;SDS011;54110;45.778;4.826;2022-11-30T08:20:45;6.63;;;1.35;;
67174;SDS011;54110;45.778;4.826;2022-11-30T08:23:11;2.83;;;1.42;;
67174;SDS011;54110;45.778;4.826;2022-11-30T08:25:37;2.17;;;1.15;;
67174;SDS011;54110;45.778;4.826;2022-11-30T08:28:05;4.50;;;1.35;;
67174;SDS011;54110;45.778;4.826;2022-11-30T08:30:31;3.72;;;1.50;;
67174;SDS011;54110;45.778;4.826;2022-11-30T08:32:57;6.15;;;1.50;;
67174;SDS011;54110;45.778;4.826;2022-11-30T08:35:23;6.78;;;1.60;;
67174;SDS011;54110;45.778;4.826;2022-11-30T08:37:49;10.00;;;1.50;;
67174;SDS011;54110;45.778;4.826;2022-11-30T08:40:15;1.85;;;1.13;;
67174;SDS011;54110;45.778;4.826;2022-11-30T08:42:41;1.50;;;1.13;;
67174;SDS011;54110;45.778;4.826;2022-11-30T08:45:09;9.10;;;2.42;;
67174;SDS011;54110;45.778;4.826;2022-11-30T08:47:35;5.18;;;1.70;;
67174;SDS011;54110;45.778;4.826;2022-11-30T08:50:01;3.50;;;1.55;;
67174;SDS011;54110;45.778;4.826;2022-11-30T08:52:27;4.22;;;2.10;;
67174;SDS011;54110;45.778;4.826;2022-11-30T08:54:53;4.25;;;1.60;;
67174;SDS011;54110;45.778;4.826;2022-11-30T08:57:19;7.53;;;1.75;;
67174;SDS011;54110;45.778;4.826;2022-11-30T08:59:46;4.43;;;1.38;;
67174;SDS011;54110;45.778;4.826;2022-11-30T09:02:14;3.38;;;1.42;;
67174;SDS011;54110;45.778;4.826;2022-11-30T09:04:40;1.75;;;0.90;;
67174;SDS011;54110;45.778;4.826;2022-11-30T09:07:06;4.57;;;2.15;;
67174;SDS011;54110;45.778;4.826;2022-11-30T09:09:32;8.88;;;1.83;;
67174;SDS011;54110;45.778;4.826;2022-11-30T09:11:58;4.50;;;1.17;;
67174;SDS011;54110;45.778;4.826;2022-11-30T09:14:24;6.82;;;1.55;;
67174;SDS011;54110;45.778;4.826;2022-11-30T09:16:51;1.30;;;0.90;;
67174;SDS011;54110;45.778;4.826;2022-11-30T09:19:18;3.65;;;1.02;;
67174;SDS011;54110;45.778;4.826;2022-11-30T09:21:44;1.92;;;1.02;;
67174;SDS011;54110;45.778;4.826;2022-11-30T09:24:10;5.22;;;1.60;;
67174;SDS011;54110;45.778;4.826;2022-11-30T09:26:36;2.22;;;1.48;;
67174;SDS011;54110;45.778;4.826;2022-11-30T09:29:03;5.10;;;1.42;;
67174;SDS011;54110;45.778;4.826;2022-11-30T09:31:29;2.53;;;1.15;;
67174;SDS011;54110;45.778;4.826;2022-11-30T09:33:55;1.73;;;1.08;;
67174;SDS011;54110;45.778;4.826;2022-11-30T09:36:24;3.42;;;1.52;;
67174;SDS011;54110;45.778;4.826;2022-11-30T09:38:50;2.60;;;1.08;;
67174;SDS011;54110;45.778;4.826;2022-11-30T09:41:23;4.72;;;1.75;;
67174;SDS011;54110;45.778;4.826;2022-11-30T09:43:55;1.80;;;1.10;;
67174;SDS011;54110;45.778;4.826;2022-11-30T09:46:26;4.15;;;2.22;;
67174;SDS011;54110;45.778;4.826;2022-11-30T09:48:53;3.25;;;1.30;;
67174;SDS011;54110;45.778;4.826;2022-11-30T09:51:24;4.25;;;1.60;;
67174;SDS011;54110;45.778;4.826;2022-11-30T09:53:52;8.55;;;1.70;;
67174;SDS011;54110;45.778;4.826;2022-11-30T09:56:20;3.28;;;1.27;;
67174;SDS011;54110;45.778;4.826;2022-11-30T09:58:49;8.88;;;1.67;;
67174;SDS011;54110;45.778;4.826;2022-11-30T10:01:18;4.35;;;1.95;;
67174;SDS011;54110;45.778;4.826;2022-11-30T10:03:44;1.38;;;0.95;;
67174;SDS011;54110;45.778;4.826;2022-11-30T10:06:12;1.52;;;1.30;;
67174;SDS011;54110;45.778;4.826;2022-11-30T10:08:48;5.65;;;1.63;;
67174;SDS011;54110;45.778;4.826;2022-11-30T10:11:22;9.00;;;1.63;;
67174;SDS011;54110;45.778;4.826;2022-11-30T10:13:56;5.90;;;2.25;;
67174;SDS011;54110;45.778;4.826;2022-11-30T10:16:26;4.72;;;1.85;;
67174;SDS011;54110;45.778;4.826;2022-11-30T10:18:58;3.63;;;1.67;;
67174;SDS011;54110;45.778;4.826;2022-11-30T10:21:30;4.40;;;1.20;;
67174;SDS011;54110;45.778;4.826;2022-11-30T10:24:02;2.80;;;1.10;;
67174;SDS011;54110;45.778;4.826;2022-11-30T10:26:31;2.63;;;1.15;;
67174;SDS011;54110;45.778;4.826;2022-11-30T10:28:57;3.75;;;1.33;;
67174;SDS011;54110;45.778;4.826;2022-11-30T10:31:27;2.33;;;1.00;;
67174;SDS011;54110;45.778;4.826;2022-11-30T10:33:53;3.60;;;1.85;;
67174;SDS011;54110;45.778;4.826;2022-11-30T10:36:23;14.15;;;2.05;;
67174;SDS011;54110;45.778;4.826;2022-11-30T10:38:51;6.68;;;2.30;;
67174;SDS011;54110;45.778;4.826;2022-11-30T10:41:21;3.20;;;1.13;;
67174;SDS011;54110;45.778;4.826;2022-11-30T10:43:50;4.25;;;1.45;;
67174;SDS011;54110;45.778;4.826;2022-11-30T10:46:18;3.42;;;1.42;;
67174;SDS011;54110;45.778;4.826;2022-11-30T10:48:47;6.50;;;1.95;;
67174;SDS011;54110;45.778;4.826;2022-11-30T10:51:15;8.77;;;2.85;;
67174;SDS011;54110;45.778;4.826;2022-11-30T10:53:41;12.85;;;2.78;;
67174;SDS011;54110;45.778;4.826;2022-11-30T10:56:08;11.27;;;2.67;;
67174;SDS011;54110;45.778;4.826;2022-11-30T10:58:37;7.03;;;2.42;;
67174;SDS011;54110;45.778;4.826;2022-11-30T11:01:04;9.48;;;3.30;;
67174;SDS011;54110;45.778;4.826;2022-11-30T11:03:31;7.75;;;3.58;;
67174;SDS011;54110;45.778;4.826;2022-11-30T11:06:10;14.35;;;4.70;;
67174;SDS011;54110;45.778;4.826;2022-11-30T11:08:37;15.52;;;4.05;;
67174;SDS011;54110;45.778;4.826;2022-11-30T11:11:03;9.23;;;4.05;;
67174;SDS011;54110;45.778;4.826;2022-11-30T11:16:17;12.23;;;3.15;;
67174;SDS011;54110;45.778;4.826;2022-11-30T11:18:50;11.15;;;3.17;;
67174;SDS011;54110;45.778;4.826;2022-11-30T11:21:17;11.98;;;3.45;;
67174;SDS011;54110;45.778;4.826;2022-11-30T11:23:44;11.73;;;3.60;;
67174;SDS011;54110;45.778;4.826;2022-11-30T11:26:14;8.48;;;3.15;;
67174;SDS011;54110;45.778;4.826;2022-11-30T11:28:42;8.30;;;3.35;;
67174;SDS011;54110;45.778;4.826;2022-11-30T11:31:17;7.22;;;3.28;;
67174;SDS011;54110;45.778;4.826;2022-11-30T11:33:48;7.03;;;2.83;;
67174;SDS011;54110;45.778;4.826;2022-11-30T11:36:19;8.32;;;2.97;;
67174;SDS011;54110;45.778;4.826;2022-11-30T11:38:48;8.55;;;2.97;;
67174;SDS011;54110;45.778;4.826;2022-11-30T11:41:16;6.22;;;3.00;;
67174;SDS011;54110;45.778;4.826;2022-11-30T11:43:54;10.02;;;3.28;;
67174;SDS011;54110;45.778;4.826;2022-11-30T11:46:22;6.47;;;2.50;;
67174;SDS011;54110;45.778;4.826;2022-11-30T11:48:55;8.52;;;2.53;;
67174;SDS011;54110;45.778;4.826;2022-11-30T11:51:27;7.57;;;2.33;;
67174;SDS011;54110;45.778;4.826;2022-11-30T11:53:54;12.88;;;3.47;;
67174;SDS011;54110;45.778;4.826;2022-11-30T11:56:22;7.55;;;2.20;;
67174;SDS011;54110;45.778;4.826;2022-11-30T11:58:51;4.90;;;1.95;;
67174;SDS011;54110;45.778;4.826;2022-11-30T12:01:24;8.05;;;2.35;;
67174;SDS011;54110;45.778;4.826;2022-11-30T12:04:02;5.73;;;2.40;;
67174;SDS011;54110;45.778;4.826;2022-11-30T12:06:30;5.35;;;2.42;;
67174;SDS011;54110;45.778;4.826;2022-11-30T12:08:58;5.82;;;2.42;;
67174;SDS011;54110;45.778;4.826;2022-11-30T12:11:26;4.45;;;2.20;;
67174;SDS011;54110;45.778;4.826;2022-11-30T12:13:54;9.40;;;3.00;;
67174;SDS011;54110;45.778;4.826;2022-11-30T12:16:29;6.53;;;2.80;;
67174;SDS011;54110;45.778;4.826;2022-11-30T12:18:57;3.67;;;1.65;;
67174;SDS011;54110;45.778;4.826;2022-11-30T12:21:27;8.82;;;2.33;;
67174;SDS011;54110;45.778;4.826;2022-11-30T12:24:02;2.85;;;1.50;;
67174;SDS011;54110;45.778;4.826;2022-11-30T12:26:33;8.40;;;2.58;;
67174;SDS011;54110;45.778;4.826;2022-11-30T12:29:04;7.53;;;2.55;;
67174;SDS011;54110;45.778;4.826;2022-11-30T12:31:36;9.88;;;2.42;;
67174;SDS011;54110;45.778;4.826;2022-11-30T12:34:05;19.88;;;2.83;;
67174;SDS011;54110;45.778;4.826;2022-11-30T12:36:36;9.38;;;3.22;;
67174;SDS011;54110;45.778;4.826;2022-11-30T12:39:06;7.95;;;1.52;;
67174;SDS011;54110;45.778;4.826;2022-11-30T12:41:35;5.68;;;2.72;;
67174;SDS011;54110;45.778;4.826;2022-11-30T12:44:05;5.30;;;2.30;;
67174;SDS011;54110;45.778;4.826;2022-11-30T12:46:33;6.03;;;2.47;;
67174;SDS011;54110;45.778;4.826;2022-11-30T12:49:19;8.60;;;2.40;;
67174;SDS011;54110;45.778;4.826;2022-11-30T12:51:49;8.57;;;1.77;;
67174;SDS011;54110;45.778;4.826;2022-11-30T12:54:18;8.85;;;2.05;;
67174;SDS011;54110;45.778;4.826;2022-11-30T12:56:50;6.78;;;1.88;;
67174;SDS011;54110;45.778;4.826;2022-11-30T12:59:21;5.95;;;2.55;;
67174;SDS011;54110;45.778;4.826;2022-11-30T13:01:53;4.53;;;2.00;;
67174;SDS011;54110;45.778;4.826;2022-11-30T13:04:22;4.45;;;1.50;;
67174;SDS011;54110;45.778;4.826;2022-11-30T13:06:50;4.05;;;1.67;;
67174;SDS011;54110;45.778;4.826;2022-11-30T13:09:20;5.85;;;1.55;;
67174;SDS011;54110;45.778;4.826;2022-11-30T13:11:49;4.25;;;2.00;;
67174;SDS011;54110;45.778;4.826;2022-11-30T13:14:17;12.68;;;2.50;;
67174;SDS011;54110;45.778;4.826;2022-11-30T13:16:45;4.20;;;2.03;;
67174;SDS011;54110;45.778;4.826;2022-11-30T13:19:21;5.15;;;1.85;;
67174;SDS011;54110;45.778;4.826;2022-11-30T13:21:52;7.03;;;2.28;;
67174;SDS011;54110;45.778;4.826;2022-11-30T13:24:21;7.00;;;1.75;;
67174;SDS011;54110;45.778;4.826;2022-11-30T13:26:48;7.05;;;1.65;;
67174;SDS011;54110;45.778;4.826;2022-11-30T13:29:21;5.60;;;1.83;;
67174;SDS011;54110;45.778;4.826;2022-11-30T13:31:50;5.63;;;2.15;;
67174;SDS011;54110;45.778;4.826;2022-11-30T13:34:21;2.47;;;1.40;;
67174;SDS011;54110;45.778;4.826;2022-11-30T13:36:48;3.45;;;1.63;;
67174;SDS011;54110;45.778;4.826;2022-11-30T13:39:18;3.75;;;1.95;;
67174;SDS011;54110;45.778;4.826;2022-11-30T13:41:46;5.30;;;2.17;;
67174;SDS011;54110;45.778;4.826;2022-11-30T13:44:19;5.13;;;2.25;;
67174;SDS011;54110;45.778;4.826;2022-11-30T13:46:47;4.53;;;1.50;;
67174;SDS011;54110;45.778;4.826;2022-11-30T13:49:17;4.47;;;1.77;;
67174;SDS011;54110;45.778;4.826;2022-11-30T13:51:44;6.22;;;2.17;;
67174;SDS011;54110;45.778;4.826;2022-11-30T13:56:56;1.75;;;1.35;;
67174;SDS011;54110;45.778;4.826;2022-11-30T13:59:32;7.68;;;2.20;;
67174;SDS011;54110;45.778;4.826;2022-11-30T14:04:42;2.60;;;1.10;;
67174;SDS011;54110;45.778;4.826;2022-11-30T14:09:53;3.00;;;1.70;;
67174;SDS011;54110;45.778;4.826;2022-11-30T14:12:42;5.72;;;2.03;;
67174;SDS011;54110;45.778;4.826;2022-11-30T14:17:49;4.07;;;1.70;;
67174;SDS011;54110;45.778;4.826;2022-11-30T14:20:16;7.40;;;2.15;;
67174;SDS011;54110;45.778;4.826;2022-11-30T14:22:43;3.45;;;1.50;;
67174;SDS011;54110;45.778;4.826;2022-11-30T14:25:11;2.17;;;1.45;;
67174;SDS011;54110;45.778;4.826;2022-11-30T14:27:39;2.33;;;2.00;;
67174;SDS011;54110;45.778;4.826;2022-11-30T14:30:05;8.27;;;1.80;;
67174;SDS011;54110;45.778;4.826;2022-11-30T14:32:33;4.53;;;2.25;;
67174;SDS011;54110;45.778;4.826;2022-11-30T14:35:04;7.63;;;1.45;;
67174;SDS011;54110;45.778;4.826;2022-11-30T14:37:32;4.13;;;2.05;;
67174;SDS011;54110;45.778;4.826;2022-11-30T14:40:01;3.78;;;1.67;;
67174;SDS011;54110;45.778;4.826;2022-11-30T14:42:28;2.55;;;1.52;;
67174;SDS011;54110;45.778;4.826;2022-11-30T14:44:55;5.40;;;1.70;;
67174;SDS011;54110;45.778;4.826;2022-11-30T14:47:22;2.65;;;1.48;;
67174;SDS011;54110;45.778;4.826;2022-11-30T14:49:49;7.25;;;1.70;;
67174;SDS011;54110;45.778;4.826;2022-11-30T14:52:19;5.47;;;2.05;;
67174;SDS011;54110;45.778;4.826;2022-11-30T14:54:49;5.40;;;1.95;;
67174;SDS011;54110;45.778;4.826;2022-11-30T14:57:18;3.38;;;1.50;;
67174;SDS011;54110;45.778;4.826;2022-11-30T14:59:47;2.35;;;1.58;;
67174;SDS011;54110;45.778;4.826;2022-11-30T15:02:18;2.85;;;1.42;;
67174;SDS011;54110;45.778;4.826;2022-11-30T15:04:45;4.50;;;2.15;;
67174;SDS011;54110;45.778;4.826;2022-11-30T15:07:11;3.63;;;1.77;;